createdAt,value
2022-12-17T00:00:28.077Z,9.27
2022-12-17T00:03:19.886Z,9.28
2022-12-17T00:06:05.246Z,9.33
2022-12-17T00:08:50.665Z,9.33
2022-12-17T00:11:48.249Z,9.28
2022-12-17T00:14:33.403Z,9.15
2022-12-17T00:17:19.002Z,9.24
2022-12-17T00:20:04.416Z,9.18
2022-12-17T00:22:53.139Z,9.34
2022-12-17T00:25:38.733Z,9.17
2022-12-17T00:28:28.603Z,9.31
2022-12-17T00:31:14.486Z,9.26
2022-12-17T00:34:00.211Z,9.27
2022-12-17T00:36:46.078Z,9.13
2022-12-17T00:39:31.605Z,9.35
2022-12-17T00:42:17.044Z,9.25
2022-12-17T00:45:02.614Z,9.00
2022-12-17T00:47:49.017Z,8.86
2022-12-17T00:50:35.702Z,9.04
2022-12-17T00:53:21.201Z,9.13
2022-12-17T00:56:06.593Z,9.16
2022-12-17T00:58:52.037Z,9.19
2022-12-17T01:01:37.491Z,9.19
2022-12-17T01:04:22.597Z,9.33
2022-12-17T01:07:08.377Z,9.37
2022-12-17T01:09:53.401Z,9.31
2022-12-17T01:12:38.771Z,9.30
2022-12-17T01:15:24.112Z,9.27
2022-12-17T01:18:09.494Z,9.28
2022-12-17T01:20:56.401Z,9.09
2022-12-17T01:23:41.708Z,8.90
2022-12-17T01:26:27.082Z,9.06
2022-12-17T01:29:12.562Z,8.96
2022-12-17T01:31:59.274Z,8.83
2022-12-17T01:34:44.834Z,8.76
2022-12-17T01:37:29.975Z,8.89
2022-12-17T01:40:15.498Z,8.87
2022-12-17T01:43:01.955Z,9.00
2022-12-17T01:46:08.572Z,8.75
2022-12-17T01:49:02.624Z,8.64
2022-12-17T01:51:49.305Z,8.68
2022-12-17T01:54:36.140Z,8.50
2022-12-17T01:57:22.755Z,8.43
2022-12-17T02:00:19.757Z,8.41
2022-12-17T02:03:05.361Z,8.53
2022-12-17T02:06:08.471Z,8.60
2022-12-17T02:09:12.559Z,8.46
2022-12-17T02:12:18.333Z,8.55
2022-12-17T02:15:07.640Z,8.50
2022-12-17T02:21:02.812Z,8.28
2022-12-17T02:23:57.968Z,8.33
2022-12-17T02:26:58.579Z,8.24
2022-12-17T02:29:46.348Z,8.15
2022-12-17T02:32:33.099Z,8.13
2022-12-17T02:35:23.309Z,8.15
2022-12-17T02:38:11.270Z,8.01
2022-12-17T02:40:56.901Z,8.06
2022-12-17T02:43:44.011Z,8.10
2022-12-17T02:46:29.499Z,8.07
2022-12-17T02:49:14.919Z,8.09
2022-12-17T02:52:02.939Z,8.13
2022-12-17T02:54:52.385Z,8.20
2022-12-17T02:57:43.451Z,8.16
2022-12-17T03:00:43.805Z,8.16
2022-12-17T03:03:29.375Z,8.11
2022-12-17T03:06:14.819Z,8.12
2022-12-17T03:09:00.645Z,7.96
2022-12-17T03:11:47.265Z,7.99
2022-12-17T03:14:32.756Z,8.05
2022-12-17T03:17:18.586Z,8.09
2022-12-17T03:20:04.747Z,8.07
2022-12-17T03:22:50.225Z,8.17
2022-12-17T03:25:35.351Z,8.13
2022-12-17T03:28:28.389Z,8.08
2022-12-17T03:31:16.242Z,8.09
2022-12-17T03:34:01.488Z,8.10
2022-12-17T03:36:46.583Z,7.99
2022-12-17T03:39:31.929Z,8.02
2022-12-17T03:42:17.955Z,8.02
2022-12-17T03:45:03.130Z,7.90
2022-12-17T03:48:08.769Z,7.82
2022-12-17T03:50:54.027Z,7.98
2022-12-17T03:53:39.266Z,7.98
2022-12-17T03:56:24.385Z,8.01
2022-12-17T03:59:09.420Z,7.99
2022-12-17T04:01:54.812Z,8.05
2022-12-17T04:04:40.082Z,7.96
2022-12-17T04:07:28.364Z,7.88
2022-12-17T04:10:13.828Z,7.90
2022-12-17T04:12:59.310Z,7.80
2022-12-17T04:15:44.325Z,7.84
2022-12-17T04:18:29.665Z,7.80
2022-12-17T04:21:14.946Z,7.69
2022-12-17T04:24:00.525Z,7.63
2022-12-17T04:26:45.808Z,7.59
2022-12-17T04:29:31.091Z,7.77
2022-12-17T04:32:16.309Z,7.77
2022-12-17T04:35:01.795Z,7.82
2022-12-17T04:37:48.559Z,7.72
2022-12-17T04:40:33.823Z,7.66
2022-12-17T04:43:29.013Z,7.67
2022-12-17T04:46:14.295Z,7.62
2022-12-17T04:48:59.819Z,7.52
2022-12-17T04:51:45.120Z,7.69
2022-12-17T04:54:30.550Z,7.61
2022-12-17T04:57:15.733Z,7.67
2022-12-17T05:00:01.143Z,7.65
2022-12-17T05:02:46.833Z,7.69
2022-12-17T05:05:32.218Z,7.64
2022-12-17T05:08:17.728Z,7.64
2022-12-17T05:11:02.912Z,7.62
2022-12-17T05:13:48.349Z,7.55
2022-12-17T05:16:35.562Z,7.53
2022-12-17T05:19:23.575Z,7.51
2022-12-17T05:25:25.837Z,7.30
2022-12-17T05:28:31.432Z,7.23
2022-12-17T05:31:16.570Z,7.26
2022-12-17T05:34:01.852Z,7.26
2022-12-17T05:36:47.281Z,7.36
2022-12-17T05:39:32.536Z,7.41
2022-12-17T05:42:17.911Z,7.49
2022-12-17T05:45:03.210Z,7.55
2022-12-17T05:47:49.210Z,7.55
2022-12-17T05:50:34.900Z,7.69
2022-12-17T05:53:23.071Z,7.70
2022-12-17T05:56:09.099Z,7.75
2022-12-17T05:58:54.080Z,7.83
2022-12-17T06:01:39.665Z,7.80
2022-12-17T06:04:25.229Z,7.82
2022-12-17T06:07:17.853Z,7.68
2022-12-17T06:10:03.019Z,7.70
2022-12-17T06:12:48.522Z,7.65
2022-12-17T06:15:33.786Z,7.64
2022-12-17T06:18:19.132Z,7.70
2022-12-17T06:21:04.775Z,7.81
2022-12-17T06:23:50.004Z,7.80
2022-12-17T06:26:35.234Z,7.74
2022-12-17T06:29:20.506Z,7.86
2022-12-17T06:32:05.727Z,7.58
2022-12-17T06:34:50.757Z,7.98
2022-12-17T06:37:36.167Z,7.95
2022-12-17T06:40:21.591Z,7.94
2022-12-17T06:43:13.149Z,7.87
2022-12-17T06:45:58.625Z,7.79
2022-12-17T06:48:44.138Z,7.79
2022-12-17T06:51:29.391Z,7.89
2022-12-17T06:54:14.851Z,7.97
2022-12-17T06:57:00.201Z,7.93
2022-12-17T06:59:45.298Z,8.14
2022-12-17T07:02:30.853Z,8.17
2022-12-17T07:05:16.412Z,8.21
2022-12-17T07:08:01.681Z,8.30
2022-12-17T07:10:46.947Z,8.43
2022-12-17T07:13:32.604Z,8.55
2022-12-17T07:16:17.851Z,8.71
2022-12-17T07:19:03.320Z,8.75
2022-12-17T07:21:48.471Z,8.83
2022-12-17T07:24:38.392Z,8.86
2022-12-17T07:27:26.556Z,8.97
2022-12-17T07:30:11.678Z,8.97
2022-12-17T07:32:56.943Z,8.97
2022-12-17T07:35:42.539Z,8.89
2022-12-17T07:38:28.949Z,9.00
2022-12-17T07:41:16.801Z,8.88
2022-12-17T07:44:02.735Z,8.82
2022-12-17T07:46:48.250Z,8.71
2022-12-17T07:49:33.680Z,8.68
2022-12-17T07:52:19.505Z,8.68
2022-12-17T07:55:06.836Z,8.69
2022-12-17T07:57:52.494Z,8.70
2022-12-17T08:00:37.956Z,8.62
2022-12-17T08:03:23.513Z,8.65
2022-12-17T08:06:08.762Z,8.69
2022-12-17T08:08:53.901Z,8.63
2022-12-17T08:11:40.130Z,8.71
2022-12-17T08:14:25.779Z,8.79
2022-12-17T08:17:11.000Z,8.80
2022-12-17T08:19:56.324Z,8.87
2022-12-17T08:22:44.118Z,8.92
2022-12-17T08:25:30.308Z,8.92
2022-12-17T08:28:50.212Z,8.99
2022-12-17T08:31:24.729Z,9.07
2022-12-17T08:34:10.271Z,9.22
2022-12-17T08:36:55.689Z,9.30
2022-12-17T08:39:40.820Z,9.39
2022-12-17T08:42:26.327Z,9.49
2022-12-17T08:45:11.730Z,9.72
2022-12-17T08:51:16.051Z,9.98
2022-12-17T08:54:01.700Z,10.09
2022-12-17T08:56:46.889Z,10.18
2022-12-17T08:59:32.396Z,10.12
2022-12-17T09:02:17.617Z,10.27
2022-12-17T09:05:02.942Z,10.33
2022-12-17T09:07:49.411Z,10.51
2022-12-17T09:10:34.830Z,10.55
2022-12-17T09:13:20.987Z,10.64
2022-12-17T09:16:10.234Z,10.72
2022-12-17T09:18:55.494Z,10.85
2022-12-17T09:21:40.972Z,10.75
2022-12-17T09:24:26.093Z,10.91
2022-12-17T09:27:11.364Z,11.00
2022-12-17T09:29:57.014Z,11.03
2022-12-17T09:32:42.044Z,10.98
2022-12-17T09:35:27.483Z,11.07
2022-12-17T09:38:14.133Z,11.19
2022-12-17T09:41:04.459Z,11.26
2022-12-17T09:43:58.748Z,11.26
2022-12-17T09:47:08.578Z,11.18
2022-12-17T09:53:32.766Z,11.32
2022-12-17T09:56:18.244Z,11.55
2022-12-17T09:59:23.886Z,11.62
2022-12-17T10:02:09.397Z,11.74
2022-12-17T10:05:02.735Z,11.73
2022-12-17T10:07:54.570Z,12.04
2022-12-17T10:10:41.395Z,12.21
2022-12-17T10:13:37.420Z,12.15
2022-12-17T10:16:55.387Z,12.39
2022-12-17T10:19:40.631Z,12.60
2022-12-17T10:22:27.297Z,12.67
2022-12-17T10:25:12.789Z,12.71
2022-12-17T10:27:58.258Z,12.69
2022-12-17T10:30:43.794Z,12.65
2022-12-17T10:33:36.121Z,12.91
2022-12-17T10:36:22.264Z,12.97
2022-12-17T10:39:14.060Z,13.04
2022-12-17T10:42:00.988Z,13.20
2022-12-17T10:44:46.647Z,13.27
2022-12-17T10:47:35.804Z,13.38
2022-12-17T10:50:32.269Z,13.44
2022-12-17T10:53:18.789Z,13.32
2022-12-17T10:56:08.742Z,13.23
2022-12-17T10:58:54.277Z,13.07
2022-12-17T11:01:42.372Z,12.95
2022-12-17T11:04:48.864Z,13.04
2022-12-17T11:07:38.205Z,13.01
2022-12-17T11:10:24.876Z,12.80
2022-12-17T11:13:13.192Z,12.84
2022-12-17T11:16:17.111Z,12.95
2022-12-17T11:19:10.115Z,13.21
2022-12-17T11:22:02.405Z,13.34
2022-12-17T11:25:00.927Z,13.48
2022-12-17T11:27:53.202Z,13.50
2022-12-17T11:30:39.498Z,13.52
2022-12-17T11:33:36.367Z,13.56
2022-12-17T11:36:39.249Z,13.64
2022-12-17T11:39:30.607Z,13.77
2022-12-17T11:42:24.126Z,13.88
2022-12-17T11:45:18.485Z,14.02
2022-12-17T11:48:15.663Z,14.00
2022-12-17T11:51:39.974Z,14.10
2022-12-17T11:54:31.897Z,14.08
2022-12-17T11:57:40.064Z,14.11
2022-12-17T12:00:33.373Z,14.17
2022-12-17T12:03:39.097Z,14.25
2022-12-17T12:06:32.160Z,14.23
2022-12-17T12:09:26.329Z,14.18
2022-12-17T12:12:17.613Z,14.20
2022-12-17T12:15:12.390Z,14.16
2022-12-17T12:18:17.192Z,14.15
2022-12-17T12:21:23.917Z,14.07
2022-12-17T12:24:47.102Z,14.00
2022-12-17T12:27:47.427Z,13.86
2022-12-17T12:30:40.864Z,13.67
2022-12-17T12:33:35.810Z,13.75
2022-12-17T12:36:25.064Z,13.79
2022-12-17T12:39:15.369Z,13.91
2022-12-17T12:42:04.391Z,13.93
2022-12-17T12:45:04.130Z,13.89
2022-12-17T12:48:10.124Z,13.99
2022-12-17T12:51:12.807Z,14.06
2022-12-17T12:53:58.527Z,13.98
2022-12-17T12:56:55.348Z,14.13
2022-12-17T12:59:55.527Z,14.15
2022-12-17T13:02:50.071Z,14.25
2022-12-17T13:05:35.213Z,14.37
2022-12-17T13:08:20.442Z,14.30
2022-12-17T13:10:48.191Z,14.39
2022-12-17T13:13:20.717Z,14.31
2022-12-17T13:15:53.237Z,14.29
2022-12-17T13:18:23.193Z,14.29
2022-12-17T13:21:00.040Z,14.29
2022-12-17T13:23:29.823Z,14.29
2022-12-17T13:26:41.471Z,14.28
2022-12-17T13:29:13.340Z,14.24
2022-12-17T13:32:03.048Z,14.21
2022-12-17T13:34:42.508Z,14.11
2022-12-17T13:37:09.330Z,14.12
2022-12-17T13:39:36.139Z,14.05
2022-12-17T13:42:03.590Z,14.02
2022-12-17T13:44:40.242Z,13.99
2022-12-17T13:47:19.867Z,13.98
2022-12-17T13:50:10.230Z,14.01
2022-12-17T13:52:37.481Z,13.94
2022-12-17T13:55:08.997Z,13.94
2022-12-17T13:57:36.842Z,13.98
2022-12-17T14:00:04.347Z,13.94
2022-12-17T14:02:39.655Z,13.97
2022-12-17T14:05:08.263Z,13.99
2022-12-17T14:07:38.179Z,13.94
2022-12-17T14:10:06.098Z,13.94
2022-12-17T14:12:35.555Z,13.88
2022-12-17T14:15:03.416Z,13.86
2022-12-17T14:17:48.334Z,13.81
2022-12-17T14:20:16.915Z,13.67
2022-12-17T14:22:51.314Z,13.70
2022-12-17T14:25:26.139Z,13.69
2022-12-17T14:27:52.867Z,13.62
2022-12-17T14:30:22.033Z,13.56
2022-12-17T14:32:48.775Z,13.50
2022-12-17T14:35:29.338Z,13.52
2022-12-17T14:37:56.476Z,13.54
2022-12-17T14:40:25.307Z,13.51
2022-12-17T14:42:53.960Z,13.47
2022-12-17T14:45:22.808Z,13.39
2022-12-17T14:47:57.395Z,13.35
2022-12-17T14:50:27.130Z,13.29
2022-12-17T14:52:54.767Z,13.30
2022-12-17T14:55:31.960Z,13.31
2022-12-17T14:58:09.481Z,13.34
2022-12-17T15:00:39.958Z,13.34
2022-12-17T15:03:10.150Z,13.28
2022-12-17T15:05:37.338Z,13.22
2022-12-17T15:08:04.843Z,13.21
2022-12-17T15:10:31.565Z,13.21
2022-12-17T15:12:58.281Z,13.18
2022-12-17T15:15:24.954Z,13.18
2022-12-17T15:17:51.643Z,13.14
2022-12-17T15:20:19.839Z,13.13
2022-12-17T15:22:46.894Z,13.10
2022-12-17T15:25:14.626Z,12.92
2022-12-17T15:27:41.649Z,12.90
2022-12-17T15:30:10.078Z,12.87
2022-12-17T15:32:36.873Z,12.89
2022-12-17T15:35:03.619Z,12.86
2022-12-17T15:37:30.334Z,12.83
2022-12-17T15:39:57.032Z,12.86
2022-12-17T15:42:42.458Z,12.86
2022-12-17T15:45:09.448Z,12.83
2022-12-17T15:47:36.136Z,12.87
2022-12-17T15:50:03.393Z,12.86
2022-12-17T15:52:30.811Z,12.85
2022-12-17T15:54:57.500Z,12.69
2022-12-17T15:57:24.172Z,12.80
2022-12-17T15:59:51.553Z,12.74
2022-12-17T16:02:18.371Z,12.85
2022-12-17T16:04:45.211Z,12.83
2022-12-17T16:07:11.898Z,12.91
2022-12-17T16:09:38.607Z,12.85
2022-12-17T16:12:05.463Z,12.91
2022-12-17T16:14:32.137Z,12.87
2022-12-17T16:16:58.847Z,12.90
2022-12-17T16:19:25.546Z,12.93
2022-12-17T16:21:52.306Z,12.89
2022-12-17T16:24:19.876Z,12.90
2022-12-17T16:26:46.647Z,12.89
2022-12-17T16:29:13.377Z,12.88
2022-12-17T16:31:40.224Z,12.86
2022-12-17T16:34:10.861Z,12.84
2022-12-17T16:36:37.685Z,12.84
2022-12-17T16:39:05.060Z,12.55
2022-12-17T16:41:32.044Z,12.49
2022-12-17T16:43:58.800Z,12.41
2022-12-17T16:46:32.998Z,12.57
2022-12-17T16:49:03.845Z,12.57
2022-12-17T16:51:31.672Z,12.61
2022-12-17T16:53:58.877Z,12.66
2022-12-17T16:56:27.794Z,12.61
2022-12-17T16:58:55.524Z,12.34
2022-12-17T17:01:26.669Z,12.62
2022-12-17T17:03:53.823Z,12.59
2022-12-17T17:06:20.637Z,12.60
2022-12-17T17:08:47.574Z,12.53
2022-12-17T17:11:15.680Z,12.45
2022-12-17T17:13:42.653Z,12.46
2022-12-17T17:16:10.252Z,12.58
2022-12-17T17:18:37.382Z,12.63
2022-12-17T17:21:34.268Z,12.67
2022-12-17T17:24:07.109Z,12.60
2022-12-17T17:26:38.257Z,12.67
2022-12-17T17:29:05.557Z,12.74
2022-12-17T17:32:08.259Z,12.71
2022-12-17T17:34:19.572Z,12.70
2022-12-17T17:36:46.722Z,12.73
2022-12-17T17:39:13.470Z,12.72
2022-12-17T17:41:40.210Z,12.58
2022-12-17T17:44:13.970Z,12.52
2022-12-17T17:46:41.338Z,12.51
2022-12-17T17:49:08.676Z,12.43
2022-12-17T17:52:07.875Z,12.49
2022-12-17T17:54:23.991Z,12.54
2022-12-17T17:56:50.884Z,12.54
2022-12-17T17:59:20.620Z,12.46
2022-12-17T18:01:49.500Z,12.34
2022-12-17T18:04:20.478Z,12.25
2022-12-17T18:07:09.049Z,12.21
2022-12-17T18:09:34.936Z,12.13
2022-12-17T18:12:22.178Z,12.09
2022-12-17T18:15:12.502Z,12.08
2022-12-17T18:17:35.586Z,12.07
2022-12-17T18:20:02.778Z,12.06
2022-12-17T18:22:29.701Z,12.13
2022-12-17T18:24:56.466Z,12.12
2022-12-17T18:27:25.490Z,12.03
2022-12-17T18:29:52.275Z,12.11
2022-12-17T18:32:19.143Z,12.15
2022-12-17T18:34:45.976Z,11.88
2022-12-17T18:37:12.809Z,12.02
2022-12-17T18:39:39.609Z,12.06
2022-12-17T18:42:24.677Z,12.12
2022-12-17T18:44:51.465Z,12.11
2022-12-17T18:47:19.131Z,12.07
2022-12-17T18:49:46.010Z,12.02
2022-12-17T18:52:16.687Z,12.00
2022-12-17T18:54:44.854Z,12.13
2022-12-17T18:57:11.652Z,12.13
2022-12-17T18:59:41.649Z,12.09
2022-12-17T19:02:12.398Z,12.04
2022-12-17T19:04:39.398Z,11.92
2022-12-17T19:07:06.184Z,11.85
2022-12-17T19:09:36.908Z,11.86
2022-12-17T19:12:07.481Z,11.91
2022-12-17T19:14:34.781Z,11.79
2022-12-17T19:17:01.779Z,11.71
2022-12-17T19:19:28.587Z,11.67
2022-12-17T19:21:55.877Z,11.67
2022-12-17T19:24:23.162Z,11.68
2022-12-17T19:26:50.218Z,11.77
2022-12-17T19:29:18.007Z,11.78
2022-12-17T19:31:45.883Z,11.82
2022-12-17T19:34:14.619Z,11.74
2022-12-17T19:36:41.577Z,11.70
2022-12-17T19:39:09.230Z,11.56
2022-12-17T19:41:36.128Z,11.55
2022-12-17T19:44:06.279Z,11.59
2022-12-17T19:46:34.070Z,11.58
2022-12-17T19:49:00.887Z,11.48
2022-12-17T19:51:29.201Z,11.52
2022-12-17T19:53:56.435Z,11.33
2022-12-17T19:56:28.254Z,11.21
2022-12-17T19:58:56.695Z,11.28
2022-12-17T20:01:25.031Z,11.30
2022-12-17T20:03:52.648Z,11.42
2022-12-17T20:06:21.293Z,11.44
2022-12-17T20:08:48.059Z,11.52
2022-12-17T20:11:34.276Z,11.56
2022-12-17T20:14:27.900Z,11.41
2022-12-17T20:16:56.060Z,11.45
2022-12-17T20:19:24.276Z,11.43
2022-12-17T20:21:51.606Z,11.58
2022-12-17T20:24:18.856Z,11.37
2022-12-17T20:26:46.934Z,11.42
2022-12-17T20:29:14.158Z,11.46
2022-12-17T20:31:46.707Z,11.48
2022-12-17T20:34:18.928Z,11.40
2022-12-17T20:36:45.990Z,11.39
2022-12-17T20:39:13.425Z,11.39
2022-12-17T20:41:40.753Z,11.23
2022-12-17T20:44:08.878Z,11.18
2022-12-17T20:46:37.037Z,11.34
2022-12-17T20:49:04.655Z,11.48
2022-12-17T20:51:31.432Z,11.53
2022-12-17T20:53:59.118Z,11.61
2022-12-17T20:56:26.985Z,11.58
2022-12-17T20:58:55.018Z,11.37
2022-12-17T21:01:23.044Z,11.39
2022-12-17T21:03:51.070Z,11.48
2022-12-17T21:06:17.935Z,11.49
2022-12-17T21:08:49.659Z,11.48
2022-12-17T21:11:17.856Z,11.48
2022-12-17T21:13:44.616Z,11.42
2022-12-17T21:16:13.193Z,11.54
2022-12-17T21:18:40.812Z,11.48
2022-12-17T21:21:09.574Z,11.50
2022-12-17T21:23:40.225Z,11.52
2022-12-17T21:26:49.013Z,12.14
2022-12-17T21:29:17.387Z,11.95
2022-12-17T21:31:51.750Z,11.65
2022-12-17T21:34:28.693Z,11.21
2022-12-17T21:36:55.591Z,10.99
2022-12-17T21:42:14.888Z,11.61
2022-12-17T21:44:41.873Z,11.49
2022-12-17T21:47:08.852Z,11.43
2022-12-17T21:49:36.174Z,11.34
2022-12-17T21:52:03.193Z,11.58
2022-12-17T21:54:30.143Z,11.21
2022-12-17T21:56:57.172Z,11.23
2022-12-17T21:59:24.024Z,11.29
2022-12-17T22:01:51.491Z,11.20
2022-12-17T22:04:18.835Z,11.40
2022-12-17T22:06:57.635Z,11.11
2022-12-17T22:09:51.133Z,10.63
2022-12-17T22:12:36.424Z,10.86
2022-12-17T22:15:03.737Z,10.98
2022-12-17T22:17:31.293Z,11.05
2022-12-17T22:19:58.255Z,11.07
2022-12-17T22:22:25.165Z,11.06
2022-12-17T22:24:52.135Z,11.04
2022-12-17T22:27:19.038Z,10.89
2022-12-17T22:30:04.208Z,11.11
2022-12-17T22:32:50.050Z,11.08
2022-12-17T22:36:41.451Z,10.97
2022-12-17T22:42:39.031Z,10.89
2022-12-17T22:44:30.355Z,10.81
2022-12-17T22:44:43.212Z,10.84
2022-12-17T22:46:27.856Z,10.90
2022-12-17T22:48:55.267Z,11.03
2022-12-17T22:51:28.287Z,10.90
2022-12-17T22:54:01.947Z,10.82
2022-12-17T22:56:49.654Z,10.63
2022-12-17T22:59:18.559Z,10.76
2022-12-17T23:01:46.473Z,10.79
2022-12-17T23:04:15.854Z,10.79
2022-12-17T23:06:45.307Z,10.65
2022-12-17T23:09:13.783Z,10.58
2022-12-17T23:11:40.980Z,10.74
2022-12-17T23:14:08.526Z,10.76
2022-12-17T23:16:38.184Z,10.66
2022-12-17T23:19:05.658Z,10.56
2022-12-17T23:21:32.579Z,10.64
2022-12-17T23:23:59.610Z,10.61
2022-12-17T23:26:30.847Z,10.44
2022-12-17T23:28:59.441Z,10.64
2022-12-17T23:31:28.548Z,10.39
2022-12-17T23:33:55.553Z,10.17
2022-12-17T23:36:24.480Z,10.27
2022-12-17T23:38:52.637Z,10.49
2022-12-17T23:41:23.159Z,10.54
2022-12-17T23:43:50.629Z,10.48
2022-12-17T23:46:21.775Z,10.48
2022-12-17T23:48:48.816Z,10.54
2022-12-17T23:51:17.480Z,10.61
2022-12-17T23:53:44.561Z,10.27
2022-12-17T23:56:17.967Z,10.13
2022-12-17T23:58:46.563Z,10.20
